sensor_id;sensor_type;location;lat;lon;timestamp;P1;durP1;ratioP1;P2;durP2;ratioP2
43841;SDS011;29495;49.970;20.842;2023-09-30T00:01:22;11.68;;;8.18;;
43841;SDS011;29495;49.970;20.842;2023-09-30T00:03:48;10.32;;;7.70;;
43841;SDS011;29495;49.970;20.842;2023-09-30T00:06:14;10.85;;;8.18;;
43841;SDS011;29495;49.970;20.842;2023-09-30T00:08:40;13.82;;;8.55;;
43841;SDS011;29495;49.970;20.842;2023-09-30T00:11:07;10.20;;;7.15;;
43841;SDS011;29495;49.970;20.842;2023-09-30T00:13:33;10.75;;;7.07;;
43841;SDS011;29495;49.970;20.842;2023-09-30T00:15:59;11.82;;;8.80;;
43841;SDS011;29495;49.970;20.842;2023-09-30T00:18:25;11.93;;;8.68;;
43841;SDS011;29495;49.970;20.842;2023-09-30T00:20:52;10.02;;;8.13;;
43841;SDS011;29495;49.970;20.842;2023-09-30T00:23:18;12.32;;;8.77;;
43841;SDS011;29495;49.970;20.842;2023-09-30T00:25:46;9.90;;;7.70;;
43841;SDS011;29495;49.970;20.842;2023-09-30T00:28:15;10.23;;;7.97;;
43841;SDS011;29495;49.970;20.842;2023-09-30T00:30:41;8.48;;;6.82;;
43841;SDS011;29495;49.970;20.842;2023-09-30T00:33:08;9.50;;;7.53;;
43841;SDS011;29495;49.970;20.842;2023-09-30T00:35:34;10.35;;;7.25;;
43841;SDS011;29495;49.970;20.842;2023-09-30T00:38:01;10.60;;;7.22;;
43841;SDS011;29495;49.970;20.842;2023-09-30T00:40:27;11.15;;;7.13;;
43841;SDS011;29495;49.970;20.842;2023-09-30T00:42:53;8.48;;;7.05;;
43841;SDS011;29495;49.970;20.842;2023-09-30T00:45:19;8.52;;;6.65;;
43841;SDS011;29495;49.970;20.842;2023-09-30T00:47:46;8.10;;;6.90;;
43841;SDS011;29495;49.970;20.842;2023-09-30T00:50:12;9.00;;;5.97;;
43841;SDS011;29495;49.970;20.842;2023-09-30T00:52:38;8.95;;;6.78;;
43841;SDS011;29495;49.970;20.842;2023-09-30T00:55:06;7.60;;;6.50;;
43841;SDS011;29495;49.970;20.842;2023-09-30T00:57:34;9.30;;;6.72;;
43841;SDS011;29495;49.970;20.842;2023-09-30T01:00:01;9.43;;;6.25;;
43841;SDS011;29495;49.970;20.842;2023-09-30T01:02:29;8.63;;;6.65;;
43841;SDS011;29495;49.970;20.842;2023-09-30T01:04:56;8.48;;;6.70;;
43841;SDS011;29495;49.970;20.842;2023-09-30T01:07:23;8.63;;;6.70;;
43841;SDS011;29495;49.970;20.842;2023-09-30T01:09:49;9.10;;;6.70;;
43841;SDS011;29495;49.970;20.842;2023-09-30T01:12:16;9.25;;;6.63;;
43841;SDS011;29495;49.970;20.842;2023-09-30T01:14:42;10.00;;;6.97;;
43841;SDS011;29495;49.970;20.842;2023-09-30T01:17:08;9.93;;;7.82;;
43841;SDS011;29495;49.970;20.842;2023-09-30T01:19:34;10.60;;;7.15;;
43841;SDS011;29495;49.970;20.842;2023-09-30T01:22:00;10.27;;;7.38;;
43841;SDS011;29495;49.970;20.842;2023-09-30T01:24:31;10.05;;;7.70;;
43841;SDS011;29495;49.970;20.842;2023-09-30T01:27:07;9.57;;;7.40;;
43841;SDS011;29495;49.970;20.842;2023-09-30T01:29:33;8.38;;;6.88;;
43841;SDS011;29495;49.970;20.842;2023-09-30T01:32:00;9.07;;;7.32;;
43841;SDS011;29495;49.970;20.842;2023-09-30T01:34:27;9.05;;;7.47;;
43841;SDS011;29495;49.970;20.842;2023-09-30T01:36:53;8.57;;;6.97;;
43841;SDS011;29495;49.970;20.842;2023-09-30T01:39:19;10.48;;;7.22;;
43841;SDS011;29495;49.970;20.842;2023-09-30T01:41:45;10.18;;;7.00;;
43841;SDS011;29495;49.970;20.842;2023-09-30T01:44:11;10.02;;;7.22;;
43841;SDS011;29495;49.970;20.842;2023-09-30T01:46:37;9.57;;;7.47;;
43841;SDS011;29495;49.970;20.842;2023-09-30T01:49:03;9.38;;;7.07;;
43841;SDS011;29495;49.970;20.842;2023-09-30T01:57:20;7.88;;;6.82;;
43841;SDS011;29495;49.970;20.842;2023-09-30T01:59:47;9.32;;;7.22;;
43841;SDS011;29495;49.970;20.842;2023-09-30T02:02:13;9.32;;;6.55;;
43841;SDS011;29495;49.970;20.842;2023-09-30T02:04:39;9.50;;;6.38;;
43841;SDS011;29495;49.970;20.842;2023-09-30T02:07:05;8.27;;;7.15;;
43841;SDS011;29495;49.970;20.842;2023-09-30T02:09:32;9.45;;;6.90;;
43841;SDS011;29495;49.970;20.842;2023-09-30T02:12:00;10.18;;;7.93;;
43841;SDS011;29495;49.970;20.842;2023-09-30T02:14:26;11.07;;;7.20;;
43841;SDS011;29495;49.970;20.842;2023-09-30T02:16:52;8.55;;;6.68;;
43841;SDS011;29495;49.970;20.842;2023-09-30T02:19:18;9.80;;;6.68;;
43841;SDS011;29495;49.970;20.842;2023-09-30T02:21:45;9.57;;;6.90;;
43841;SDS011;29495;49.970;20.842;2023-09-30T02:24:11;10.02;;;7.53;;
43841;SDS011;29495;49.970;20.842;2023-09-30T02:26:37;9.80;;;7.28;;
43841;SDS011;29495;49.970;20.842;2023-09-30T02:29:04;8.00;;;6.10;;
43841;SDS011;29495;49.970;20.842;2023-09-30T02:31:33;9.00;;;6.75;;
43841;SDS011;29495;49.970;20.842;2023-09-30T02:33:59;7.43;;;6.50;;
43841;SDS011;29495;49.970;20.842;2023-09-30T02:36:27;7.88;;;6.35;;
43841;SDS011;29495;49.970;20.842;2023-09-30T02:38:53;8.20;;;5.90;;
43841;SDS011;29495;49.970;20.842;2023-09-30T02:41:19;7.63;;;6.60;;
43841;SDS011;29495;49.970;20.842;2023-09-30T02:43:45;8.40;;;7.05;;
43841;SDS011;29495;49.970;20.842;2023-09-30T02:46:11;8.30;;;6.65;;
43841;SDS011;29495;49.970;20.842;2023-09-30T02:48:38;8.65;;;6.15;;
43841;SDS011;29495;49.970;20.842;2023-09-30T02:51:08;7.05;;;5.95;;
43841;SDS011;29495;49.970;20.842;2023-09-30T02:53:35;8.82;;;6.35;;
43841;SDS011;29495;49.970;20.842;2023-09-30T02:56:01;9.10;;;6.82;;
43841;SDS011;29495;49.970;20.842;2023-09-30T02:58:27;9.18;;;6.57;;
43841;SDS011;29495;49.970;20.842;2023-09-30T03:00:54;8.98;;;6.45;;
43841;SDS011;29495;49.970;20.842;2023-09-30T03:03:20;9.48;;;7.25;;
43841;SDS011;29495;49.970;20.842;2023-09-30T03:05:47;8.05;;;6.53;;
43841;SDS011;29495;49.970;20.842;2023-09-30T03:08:15;7.40;;;6.60;;
43841;SDS011;29495;49.970;20.842;2023-09-30T03:10:41;9.77;;;6.30;;
43841;SDS011;29495;49.970;20.842;2023-09-30T03:13:08;9.15;;;7.10;;
43841;SDS011;29495;49.970;20.842;2023-09-30T03:15:37;8.43;;;6.22;;
43841;SDS011;29495;49.970;20.842;2023-09-30T03:18:04;11.85;;;7.30;;
43841;SDS011;29495;49.970;20.842;2023-09-30T03:20:30;9.32;;;6.90;;
43841;SDS011;29495;49.970;20.842;2023-09-30T03:22:56;9.13;;;7.00;;
43841;SDS011;29495;49.970;20.842;2023-09-30T03:25:22;7.35;;;6.22;;
43841;SDS011;29495;49.970;20.842;2023-09-30T03:27:48;6.82;;;5.85;;
43841;SDS011;29495;49.970;20.842;2023-09-30T03:30:15;8.55;;;6.72;;
43841;SDS011;29495;49.970;20.842;2023-09-30T03:32:42;8.38;;;6.07;;
43841;SDS011;29495;49.970;20.842;2023-09-30T03:35:09;7.30;;;6.13;;
43841;SDS011;29495;49.970;20.842;2023-09-30T03:37:36;7.22;;;5.85;;
43841;SDS011;29495;49.970;20.842;2023-09-30T03:40:03;9.38;;;7.00;;
43841;SDS011;29495;49.970;20.842;2023-09-30T03:42:38;8.63;;;7.57;;
43841;SDS011;29495;49.970;20.842;2023-09-30T03:45:05;7.43;;;6.57;;
43841;SDS011;29495;49.970;20.842;2023-09-30T03:47:37;8.02;;;6.13;;
43841;SDS011;29495;49.970;20.842;2023-09-30T03:50:04;8.52;;;6.35;;
43841;SDS011;29495;49.970;20.842;2023-09-30T03:52:32;9.07;;;6.38;;
43841;SDS011;29495;49.970;20.842;2023-09-30T03:54:59;8.50;;;6.97;;
43841;SDS011;29495;49.970;20.842;2023-09-30T04:00:28;10.15;;;7.50;;
43841;SDS011;29495;49.970;20.842;2023-09-30T04:02:54;11.35;;;7.45;;
43841;SDS011;29495;49.970;20.842;2023-09-30T04:05:24;10.30;;;7.30;;
43841;SDS011;29495;49.970;20.842;2023-09-30T04:08:01;7.53;;;6.75;;
43841;SDS011;29495;49.970;20.842;2023-09-30T04:10:28;9.70;;;7.28;;
43841;SDS011;29495;49.970;20.842;2023-09-30T04:12:57;8.60;;;7.35;;
43841;SDS011;29495;49.970;20.842;2023-09-30T04:15:23;7.95;;;6.50;;
43841;SDS011;29495;49.970;20.842;2023-09-30T04:17:49;7.50;;;6.20;;
43841;SDS011;29495;49.970;20.842;2023-09-30T04:20:16;9.55;;;6.25;;
43841;SDS011;29495;49.970;20.842;2023-09-30T04:22:48;9.80;;;7.18;;
43841;SDS011;29495;49.970;20.842;2023-09-30T04:25:15;9.50;;;6.93;;
43841;SDS011;29495;49.970;20.842;2023-09-30T04:27:43;6.30;;;5.60;;
43841;SDS011;29495;49.970;20.842;2023-09-30T04:30:10;9.10;;;6.00;;
43841;SDS011;29495;49.970;20.842;2023-09-30T04:32:37;6.50;;;5.70;;
43841;SDS011;29495;49.970;20.842;2023-09-30T04:35:04;7.95;;;5.88;;
43841;SDS011;29495;49.970;20.842;2023-09-30T04:37:31;8.98;;;6.10;;
43841;SDS011;29495;49.970;20.842;2023-09-30T04:39:57;7.68;;;5.70;;
43841;SDS011;29495;49.970;20.842;2023-09-30T04:42:23;7.88;;;6.65;;
43841;SDS011;29495;49.970;20.842;2023-09-30T04:44:51;9.38;;;5.78;;
43841;SDS011;29495;49.970;20.842;2023-09-30T04:47:25;6.45;;;5.70;;
43841;SDS011;29495;49.970;20.842;2023-09-30T04:49:51;6.45;;;5.60;;
43841;SDS011;29495;49.970;20.842;2023-09-30T04:52:17;8.68;;;5.45;;
43841;SDS011;29495;49.970;20.842;2023-09-30T04:54:43;6.00;;;5.40;;
43841;SDS011;29495;49.970;20.842;2023-09-30T04:57:10;7.43;;;5.60;;
43841;SDS011;29495;49.970;20.842;2023-09-30T04:59:36;7.88;;;5.50;;
43841;SDS011;29495;49.970;20.842;2023-09-30T05:02:02;7.85;;;5.35;;
43841;SDS011;29495;49.970;20.842;2023-09-30T05:04:29;6.65;;;5.38;;
43841;SDS011;29495;49.970;20.842;2023-09-30T05:06:55;5.57;;;4.95;;
43841;SDS011;29495;49.970;20.842;2023-09-30T05:09:20;5.53;;;4.78;;
43841;SDS011;29495;49.970;20.842;2023-09-30T05:11:46;5.78;;;4.85;;
43841;SDS011;29495;49.970;20.842;2023-09-30T05:14:12;4.97;;;4.22;;
43841;SDS011;29495;49.970;20.842;2023-09-30T05:16:38;6.40;;;4.20;;
43841;SDS011;29495;49.970;20.842;2023-09-30T05:19:04;6.07;;;4.60;;
43841;SDS011;29495;49.970;20.842;2023-09-30T05:21:30;5.95;;;4.82;;
43841;SDS011;29495;49.970;20.842;2023-09-30T05:23:56;6.95;;;5.10;;
43841;SDS011;29495;49.970;20.842;2023-09-30T05:26:22;5.43;;;4.72;;
43841;SDS011;29495;49.970;20.842;2023-09-30T05:28:48;6.55;;;4.65;;
43841;SDS011;29495;49.970;20.842;2023-09-30T05:31:14;7.28;;;4.85;;
43841;SDS011;29495;49.970;20.842;2023-09-30T05:33:40;5.90;;;4.78;;
43841;SDS011;29495;49.970;20.842;2023-09-30T05:36:06;6.30;;;4.88;;
43841;SDS011;29495;49.970;20.842;2023-09-30T05:38:32;6.35;;;5.43;;
43841;SDS011;29495;49.970;20.842;2023-09-30T05:40:58;6.70;;;5.22;;
43841;SDS011;29495;49.970;20.842;2023-09-30T05:43:24;6.75;;;4.53;;
43841;SDS011;29495;49.970;20.842;2023-09-30T05:45:52;5.40;;;4.90;;
43841;SDS011;29495;49.970;20.842;2023-09-30T05:48:20;6.10;;;4.40;;
43841;SDS011;29495;49.970;20.842;2023-09-30T05:50:46;5.75;;;4.53;;
43841;SDS011;29495;49.970;20.842;2023-09-30T05:53:13;4.50;;;4.10;;
43841;SDS011;29495;49.970;20.842;2023-09-30T05:55:39;4.85;;;3.80;;
43841;SDS011;29495;49.970;20.842;2023-09-30T05:58:09;4.90;;;4.35;;
43841;SDS011;29495;49.970;20.842;2023-09-30T06:00:35;6.78;;;4.22;;
43841;SDS011;29495;49.970;20.842;2023-09-30T06:03:01;5.03;;;3.92;;
43841;SDS011;29495;49.970;20.842;2023-09-30T06:05:30;4.63;;;3.75;;
43841;SDS011;29495;49.970;20.842;2023-09-30T06:07:59;4.97;;;4.03;;
43841;SDS011;29495;49.970;20.842;2023-09-30T06:10:28;7.30;;;3.88;;
43841;SDS011;29495;49.970;20.842;2023-09-30T06:12:54;4.63;;;3.78;;
43841;SDS011;29495;49.970;20.842;2023-09-30T06:15:22;3.55;;;3.25;;
43841;SDS011;29495;49.970;20.842;2023-09-30T06:17:52;4.03;;;3.63;;
43841;SDS011;29495;49.970;20.842;2023-09-30T06:20:21;4.32;;;3.65;;
43841;SDS011;29495;49.970;20.842;2023-09-30T06:22:48;4.25;;;3.55;;
43841;SDS011;29495;49.970;20.842;2023-09-30T06:27:43;4.85;;;3.88;;
43841;SDS011;29495;49.970;20.842;2023-09-30T06:30:10;3.42;;;3.00;;
43841;SDS011;29495;49.970;20.842;2023-09-30T06:32:37;4.53;;;3.90;;
43841;SDS011;29495;49.970;20.842;2023-09-30T06:35:03;4.80;;;4.30;;
43841;SDS011;29495;49.970;20.842;2023-09-30T06:37:31;4.50;;;3.77;;
43841;SDS011;29495;49.970;20.842;2023-09-30T06:39:58;4.55;;;4.15;;
43841;SDS011;29495;49.970;20.842;2023-09-30T06:42:24;6.10;;;4.40;;
43841;SDS011;29495;49.970;20.842;2023-09-30T06:44:50;3.88;;;3.47;;
43841;SDS011;29495;49.970;20.842;2023-09-30T06:47:18;4.20;;;3.80;;
43841;SDS011;29495;49.970;20.842;2023-09-30T06:49:44;4.35;;;3.30;;
43841;SDS011;29495;49.970;20.842;2023-09-30T06:52:11;4.22;;;3.83;;
43841;SDS011;29495;49.970;20.842;2023-09-30T06:54:38;3.85;;;3.25;;
43841;SDS011;29495;49.970;20.842;2023-09-30T06:57:04;4.53;;;3.58;;
43841;SDS011;29495;49.970;20.842;2023-09-30T06:59:32;4.25;;;3.75;;
43841;SDS011;29495;49.970;20.842;2023-09-30T07:01:57;4.35;;;3.58;;
43841;SDS011;29495;49.970;20.842;2023-09-30T07:04:24;4.88;;;3.83;;
43841;SDS011;29495;49.970;20.842;2023-09-30T07:06:54;5.38;;;3.60;;
43841;SDS011;29495;49.970;20.842;2023-09-30T07:09:20;5.18;;;3.88;;
43841;SDS011;29495;49.970;20.842;2023-09-30T07:11:46;4.93;;;4.00;;
43841;SDS011;29495;49.970;20.842;2023-09-30T07:14:12;4.90;;;4.07;;
43841;SDS011;29495;49.970;20.842;2023-09-30T07:16:38;4.43;;;4.03;;
43841;SDS011;29495;49.970;20.842;2023-09-30T07:19:05;5.28;;;4.18;;
43841;SDS011;29495;49.970;20.842;2023-09-30T07:21:31;6.93;;;4.25;;
43841;SDS011;29495;49.970;20.842;2023-09-30T07:23:57;4.30;;;3.90;;
43841;SDS011;29495;49.970;20.842;2023-09-30T07:26:24;5.22;;;4.15;;
43841;SDS011;29495;49.970;20.842;2023-09-30T07:28:50;5.13;;;3.95;;
43841;SDS011;29495;49.970;20.842;2023-09-30T07:31:16;4.90;;;4.10;;
43841;SDS011;29495;49.970;20.842;2023-09-30T07:33:42;4.53;;;3.53;;
43841;SDS011;29495;49.970;20.842;2023-09-30T07:36:08;4.68;;;4.18;;
43841;SDS011;29495;49.970;20.842;2023-09-30T07:38:34;5.00;;;3.95;;
43841;SDS011;29495;49.970;20.842;2023-09-30T07:41:00;5.75;;;4.18;;
43841;SDS011;29495;49.970;20.842;2023-09-30T07:43:28;3.83;;;3.47;;
43841;SDS011;29495;49.970;20.842;2023-09-30T07:45:56;4.07;;;3.60;;
43841;SDS011;29495;49.970;20.842;2023-09-30T07:48:21;4.10;;;3.70;;
43841;SDS011;29495;49.970;20.842;2023-09-30T07:50:47;5.30;;;3.95;;
43841;SDS011;29495;49.970;20.842;2023-09-30T07:53:13;7.07;;;4.65;;
43841;SDS011;29495;49.970;20.842;2023-09-30T07:55:39;5.43;;;3.83;;
43841;SDS011;29495;49.970;20.842;2023-09-30T07:58:05;9.00;;;5.07;;
43841;SDS011;29495;49.970;20.842;2023-09-30T08:00:33;6.03;;;4.05;;
43841;SDS011;29495;49.970;20.842;2023-09-30T08:02:59;4.53;;;3.95;;
43841;SDS011;29495;49.970;20.842;2023-09-30T08:05:28;5.72;;;4.38;;
43841;SDS011;29495;49.970;20.842;2023-09-30T08:07:54;5.80;;;4.32;;
43841;SDS011;29495;49.970;20.842;2023-09-30T08:10:20;5.43;;;4.13;;
43841;SDS011;29495;49.970;20.842;2023-09-30T08:18:51;4.95;;;3.75;;
43841;SDS011;29495;49.970;20.842;2023-09-30T08:21:17;5.07;;;4.50;;
43841;SDS011;29495;49.970;20.842;2023-09-30T08:23:43;4.60;;;4.10;;
43841;SDS011;29495;49.970;20.842;2023-09-30T08:26:09;5.78;;;4.30;;
43841;SDS011;29495;49.970;20.842;2023-09-30T08:28:35;5.57;;;4.28;;
43841;SDS011;29495;49.970;20.842;2023-09-30T08:31:05;6.07;;;4.70;;
43841;SDS011;29495;49.970;20.842;2023-09-30T08:33:31;5.85;;;4.60;;
43841;SDS011;29495;49.970;20.842;2023-09-30T08:36:04;5.82;;;4.70;;
43841;SDS011;29495;49.970;20.842;2023-09-30T08:38:36;5.00;;;4.47;;
43841;SDS011;29495;49.970;20.842;2023-09-30T08:41:03;6.00;;;4.78;;
43841;SDS011;29495;49.970;20.842;2023-09-30T08:43:30;6.30;;;4.60;;
43841;SDS011;29495;49.970;20.842;2023-09-30T08:45:57;7.88;;;5.18;;
43841;SDS011;29495;49.970;20.842;2023-09-30T08:48:28;6.68;;;5.20;;
43841;SDS011;29495;49.970;20.842;2023-09-30T08:50:55;7.35;;;5.45;;
43841;SDS011;29495;49.970;20.842;2023-09-30T08:53:24;8.45;;;5.70;;
43841;SDS011;29495;49.970;20.842;2023-09-30T08:55:52;7.65;;;5.15;;
43841;SDS011;29495;49.970;20.842;2023-09-30T08:58:28;8.25;;;6.30;;
43841;SDS011;29495;49.970;20.842;2023-09-30T09:00:55;8.23;;;6.50;;
43841;SDS011;29495;49.970;20.842;2023-09-30T09:03:21;8.75;;;5.97;;
43841;SDS011;29495;49.970;20.842;2023-09-30T09:05:56;10.20;;;7.15;;
43841;SDS011;29495;49.970;20.842;2023-09-30T09:08:26;11.60;;;7.55;;
43841;SDS011;29495;49.970;20.842;2023-09-30T09:10:59;10.60;;;7.25;;
43841;SDS011;29495;49.970;20.842;2023-09-30T09:13:28;11.52;;;7.38;;
43841;SDS011;29495;49.970;20.842;2023-09-30T09:16:15;12.77;;;8.85;;
43841;SDS011;29495;49.970;20.842;2023-09-30T09:18:43;11.45;;;7.53;;
43841;SDS011;29495;49.970;20.842;2023-09-30T09:21:10;9.43;;;7.10;;
43841;SDS011;29495;49.970;20.842;2023-09-30T09:23:40;9.27;;;7.10;;
43841;SDS011;29495;49.970;20.842;2023-09-30T09:26:11;10.52;;;7.68;;
43841;SDS011;29495;49.970;20.842;2023-09-30T09:28:47;12.82;;;8.00;;
43841;SDS011;29495;49.970;20.842;2023-09-30T09:31:20;9.65;;;7.35;;
43841;SDS011;29495;49.970;20.842;2023-09-30T09:33:51;13.13;;;8.52;;
43841;SDS011;29495;49.970;20.842;2023-09-30T09:36:18;13.65;;;8.57;;
43841;SDS011;29495;49.970;20.842;2023-09-30T09:38:45;12.32;;;8.98;;
43841;SDS011;29495;49.970;20.842;2023-09-30T09:41:14;11.48;;;8.65;;
43841;SDS011;29495;49.970;20.842;2023-09-30T09:43:43;12.63;;;8.23;;
43841;SDS011;29495;49.970;20.842;2023-09-30T09:46:10;9.65;;;7.30;;
43841;SDS011;29495;49.970;20.842;2023-09-30T09:48:37;9.23;;;7.55;;
43841;SDS011;29495;49.970;20.842;2023-09-30T09:56:43;8.75;;;6.55;;
43841;SDS011;29495;49.970;20.842;2023-09-30T09:59:11;8.43;;;5.72;;
43841;SDS011;29495;49.970;20.842;2023-09-30T10:01:38;7.60;;;5.68;;
43841;SDS011;29495;49.970;20.842;2023-09-30T10:04:05;7.55;;;5.57;;
43841;SDS011;29495;49.970;20.842;2023-09-30T10:06:32;10.32;;;6.13;;
43841;SDS011;29495;49.970;20.842;2023-09-30T10:09:05;9.27;;;6.05;;
43841;SDS011;29495;49.970;20.842;2023-09-30T10:11:38;8.35;;;6.13;;
43841;SDS011;29495;49.970;20.842;2023-09-30T10:19:14;10.07;;;5.75;;
43841;SDS011;29495;49.970;20.842;2023-09-30T10:24:51;6.03;;;5.22;;
43841;SDS011;29495;49.970;20.842;2023-09-30T10:32:14;7.47;;;5.60;;
43841;SDS011;29495;49.970;20.842;2023-09-30T10:34:50;6.25;;;5.00;;
43841;SDS011;29495;49.970;20.842;2023-09-30T10:37:21;8.60;;;6.22;;
43841;SDS011;29495;49.970;20.842;2023-09-30T10:53:44;6.15;;;4.88;;
43841;SDS011;29495;49.970;20.842;2023-09-30T10:56:11;7.57;;;5.60;;
43841;SDS011;29495;49.970;20.842;2023-09-30T11:01:13;5.50;;;4.53;;
43841;SDS011;29495;49.970;20.842;2023-09-30T11:03:41;5.20;;;4.43;;
43841;SDS011;29495;49.970;20.842;2023-09-30T11:06:07;5.68;;;4.75;;
43841;SDS011;29495;49.970;20.842;2023-09-30T11:09:01;5.38;;;4.85;;
43841;SDS011;29495;49.970;20.842;2023-09-30T11:11:38;8.27;;;6.07;;
43841;SDS011;29495;49.970;20.842;2023-09-30T11:30:32;5.97;;;4.60;;
43841;SDS011;29495;49.970;20.842;2023-09-30T11:33:00;9.27;;;4.88;;
43841;SDS011;29495;49.970;20.842;2023-09-30T11:35:26;5.55;;;4.43;;
43841;SDS011;29495;49.970;20.842;2023-09-30T11:46:56;10.13;;;6.03;;
43841;SDS011;29495;49.970;20.842;2023-09-30T11:49:33;7.53;;;4.88;;
43841;SDS011;29495;49.970;20.842;2023-09-30T11:52:02;8.30;;;5.70;;
43841;SDS011;29495;49.970;20.842;2023-09-30T11:54:30;7.05;;;5.10;;
43841;SDS011;29495;49.970;20.842;2023-09-30T11:57:01;10.90;;;6.07;;
43841;SDS011;29495;49.970;20.842;2023-09-30T11:59:28;8.45;;;5.95;;
43841;SDS011;29495;49.970;20.842;2023-09-30T12:01:55;8.13;;;6.00;;
43841;SDS011;29495;49.970;20.842;2023-09-30T12:04:21;6.72;;;5.55;;
43841;SDS011;29495;49.970;20.842;2023-09-30T12:06:47;7.25;;;5.28;;
43841;SDS011;29495;49.970;20.842;2023-09-30T12:09:14;7.13;;;5.63;;
43841;SDS011;29495;49.970;20.842;2023-09-30T12:11:42;8.32;;;6.15;;
43841;SDS011;29495;49.970;20.842;2023-09-30T12:14:12;7.40;;;5.50;;
43841;SDS011;29495;49.970;20.842;2023-09-30T12:16:39;6.53;;;5.18;;
43841;SDS011;29495;49.970;20.842;2023-09-30T12:19:06;8.32;;;5.50;;
43841;SDS011;29495;49.970;20.842;2023-09-30T12:21:32;6.72;;;5.18;;
43841;SDS011;29495;49.970;20.842;2023-09-30T12:23:59;9.05;;;5.75;;
43841;SDS011;29495;49.970;20.842;2023-09-30T12:26:27;9.65;;;6.53;;
43841;SDS011;29495;49.970;20.842;2023-09-30T12:28:52;13.05;;;7.47;;
43841;SDS011;29495;49.970;20.842;2023-09-30T12:31:18;13.00;;;7.65;;
43841;SDS011;29495;49.970;20.842;2023-09-30T12:33:45;11.18;;;7.07;;
43841;SDS011;29495;49.970;20.842;2023-09-30T12:36:16;10.00;;;7.50;;
43841;SDS011;29495;49.970;20.842;2023-09-30T12:38:42;7.95;;;6.38;;
43841;SDS011;29495;49.970;20.842;2023-09-30T12:41:09;9.70;;;6.80;;
43841;SDS011;29495;49.970;20.842;2023-09-30T12:43:35;7.65;;;6.57;;
43841;SDS011;29495;49.970;20.842;2023-09-30T12:46:01;8.75;;;6.28;;
43841;SDS011;29495;49.970;20.842;2023-09-30T12:54:18;10.25;;;7.55;;
43841;SDS011;29495;49.970;20.842;2023-09-30T12:56:44;7.95;;;6.63;;
43841;SDS011;29495;49.970;20.842;2023-09-30T12:59:12;7.80;;;5.90;;
43841;SDS011;29495;49.970;20.842;2023-09-30T13:01:38;9.63;;;7.00;;
43841;SDS011;29495;49.970;20.842;2023-09-30T13:04:04;9.60;;;7.43;;
43841;SDS011;29495;49.970;20.842;2023-09-30T13:09:02;9.88;;;6.80;;
43841;SDS011;29495;49.970;20.842;2023-09-30T13:11:31;8.10;;;6.00;;
43841;SDS011;29495;49.970;20.842;2023-09-30T13:13:57;8.98;;;6.88;;
43841;SDS011;29495;49.970;20.842;2023-09-30T13:16:22;7.88;;;5.70;;
43841;SDS011;29495;49.970;20.842;2023-09-30T13:18:49;5.18;;;4.68;;
43841;SDS011;29495;49.970;20.842;2023-09-30T13:21:17;4.30;;;3.90;;
43841;SDS011;29495;49.970;20.842;2023-09-30T13:23:43;4.03;;;3.60;;
43841;SDS011;29495;49.970;20.842;2023-09-30T13:26:11;5.28;;;4.28;;
43841;SDS011;29495;49.970;20.842;2023-09-30T13:28:37;4.10;;;3.33;;
43841;SDS011;29495;49.970;20.842;2023-09-30T13:31:03;3.97;;;3.35;;
43841;SDS011;29495;49.970;20.842;2023-09-30T13:33:29;3.88;;;2.75;;
43841;SDS011;29495;49.970;20.842;2023-09-30T13:35:55;4.35;;;3.25;;
43841;SDS011;29495;49.970;20.842;2023-09-30T13:38:21;4.30;;;3.65;;
43841;SDS011;29495;49.970;20.842;2023-09-30T13:40:47;3.72;;;3.10;;
43841;SDS011;29495;49.970;20.842;2023-09-30T13:43:13;3.95;;;2.92;;
43841;SDS011;29495;49.970;20.842;2023-09-30T13:45:39;2.72;;;2.50;;
43841;SDS011;29495;49.970;20.842;2023-09-30T13:48:05;3.20;;;2.70;;
43841;SDS011;29495;49.970;20.842;2023-09-30T13:50:31;4.65;;;2.90;;
43841;SDS011;29495;49.970;20.842;2023-09-30T13:52:57;4.07;;;2.90;;
43841;SDS011;29495;49.970;20.842;2023-09-30T13:55:26;3.20;;;2.85;;
43841;SDS011;29495;49.970;20.842;2023-09-30T13:57:52;3.33;;;2.80;;
43841;SDS011;29495;49.970;20.842;2023-09-30T14:06:10;3.13;;;2.38;;
43841;SDS011;29495;49.970;20.842;2023-09-30T14:08:38;3.17;;;2.22;;
43841;SDS011;29495;49.970;20.842;2023-09-30T14:11:04;3.78;;;2.60;;
43841;SDS011;29495;49.970;20.842;2023-09-30T14:13:30;3.10;;;2.47;;
43841;SDS011;29495;49.970;20.842;2023-09-30T14:15:57;3.42;;;2.53;;
43841;SDS011;29495;49.970;20.842;2023-09-30T14:18:23;3.22;;;2.70;;
43841;SDS011;29495;49.970;20.842;2023-09-30T14:20:49;3.28;;;2.53;;
43841;SDS011;29495;49.970;20.842;2023-09-30T14:23:15;3.97;;;3.00;;
43841;SDS011;29495;49.970;20.842;2023-09-30T14:25:41;2.85;;;2.17;;
43841;SDS011;29495;49.970;20.842;2023-09-30T14:28:08;2.85;;;2.20;;
43841;SDS011;29495;49.970;20.842;2023-09-30T14:30:34;2.97;;;2.22;;
43841;SDS011;29495;49.970;20.842;2023-09-30T14:33:00;3.05;;;1.90;;
43841;SDS011;29495;49.970;20.842;2023-09-30T14:35:26;3.28;;;2.10;;
43841;SDS011;29495;49.970;20.842;2023-09-30T14:37:52;2.13;;;1.92;;
43841;SDS011;29495;49.970;20.842;2023-09-30T14:40:20;2.80;;;1.90;;
43841;SDS011;29495;49.970;20.842;2023-09-30T14:42:46;2.47;;;1.92;;
43841;SDS011;29495;49.970;20.842;2023-09-30T14:45:11;3.88;;;2.50;;
43841;SDS011;29495;49.970;20.842;2023-09-30T14:47:37;2.67;;;2.25;;
43841;SDS011;29495;49.970;20.842;2023-09-30T14:50:07;2.67;;;2.42;;
43841;SDS011;29495;49.970;20.842;2023-09-30T14:52:34;3.85;;;2.80;;
43841;SDS011;29495;49.970;20.842;2023-09-30T14:55:00;3.83;;;2.80;;
43841;SDS011;29495;49.970;20.842;2023-09-30T14:57:26;5.28;;;3.20;;
43841;SDS011;29495;49.970;20.842;2023-09-30T14:59:58;4.65;;;2.70;;
43841;SDS011;29495;49.970;20.842;2023-09-30T15:02:27;4.20;;;2.80;;
43841;SDS011;29495;49.970;20.842;2023-09-30T15:04:56;4.30;;;2.92;;
43841;SDS011;29495;49.970;20.842;2023-09-30T15:07:21;4.68;;;3.45;;
43841;SDS011;29495;49.970;20.842;2023-09-30T15:15:25;4.13;;;2.55;;
43841;SDS011;29495;49.970;20.842;2023-09-30T15:17:51;4.45;;;2.00;;
43841;SDS011;29495;49.970;20.842;2023-09-30T15:20:18;3.25;;;2.45;;
43841;SDS011;29495;49.970;20.842;2023-09-30T15:22:52;4.10;;;3.00;;
43841;SDS011;29495;49.970;20.842;2023-09-30T15:25:18;3.38;;;2.40;;
43841;SDS011;29495;49.970;20.842;2023-09-30T15:27:45;4.28;;;2.85;;
43841;SDS011;29495;49.970;20.842;2023-09-30T15:30:20;5.00;;;2.50;;
43841;SDS011;29495;49.970;20.842;2023-09-30T15:32:55;5.53;;;3.17;;
43841;SDS011;29495;49.970;20.842;2023-09-30T15:35:21;7.88;;;3.78;;
43841;SDS011;29495;49.970;20.842;2023-09-30T15:37:47;5.00;;;2.58;;
43841;SDS011;29495;49.970;20.842;2023-09-30T15:40:31;7.43;;;2.70;;
43841;SDS011;29495;49.970;20.842;2023-09-30T15:43:15;5.93;;;3.28;;
43841;SDS011;29495;49.970;20.842;2023-09-30T15:45:49;4.75;;;2.45;;
43841;SDS011;29495;49.970;20.842;2023-09-30T15:48:33;4.85;;;2.67;;
43841;SDS011;29495;49.970;20.842;2023-09-30T15:51:14;4.80;;;3.25;;
43841;SDS011;29495;49.970;20.842;2023-09-30T15:53:40;4.30;;;3.00;;
43841;SDS011;29495;49.970;20.842;2023-09-30T15:56:09;4.72;;;2.38;;
43841;SDS011;29495;49.970;20.842;2023-09-30T15:58:36;4.65;;;2.67;;
43841;SDS011;29495;49.970;20.842;2023-09-30T16:01:05;6.30;;;3.50;;
43841;SDS011;29495;49.970;20.842;2023-09-30T16:03:35;4.72;;;2.85;;
43841;SDS011;29495;49.970;20.842;2023-09-30T16:06:04;6.68;;;3.80;;
43841;SDS011;29495;49.970;20.842;2023-09-30T16:10:09;8.45;;;4.95;;
43841;SDS011;29495;49.970;20.842;2023-09-30T16:12:53;5.85;;;4.18;;
43841;SDS011;29495;49.970;20.842;2023-09-30T16:16:41;6.68;;;4.55;;